EGSS/STN METAR and TAF weather

Enter ICAO airport designator
Station Type Date Time Source
EGSS METAR 2020/09/18 20:20 UTC NOAA

EGSS 182020Z AUTO 05011KT 9999 NCD 13/10 Q1022


Station Type Date Time Source
EGSS Decoded METAR 2020/09/18 20:20 UTC NOAA

Stansted Airport, United Kingdom (EGSS) 51-53N 000-14E 0M
Sep 18, 2020 - 04:20 PM EDT / 2020.09.18 2020 UTC
Wind: from the NE (050 degrees) at 13 MPH (11 KT):0
Visibility: greater than 7 mile(s):0
Temperature: 55 F (13 C)
Dew Point: 50 F (10 C)
Relative Humidity: 81%
Pressure (altimeter): 30.18 in. Hg (1022 hPa)
ob: EGSS 182020Z AUTO 05011KT 9999 NCD 13/10 Q1022
cycle: 20

Station Type Date Time Source
EGSS TAF 2020/09/18 18:12 UTC NOAA

TAF EGSS 181704Z 1818/1924 05012KT CAVOK PROB40
TEMPO 1909/1924 05015G25KT

Example: see airport list